Time;durP1;ratioP1;P1;durP2;ratioP2;P2;SDS_P1;SDS_P2;PMS_P1;PMS_P2;Temp;Humidity;BMP_temperature;BMP_pressure;BME280_temperature;BME280_humidity;BME280_pressure;Samples;Min_cycle;Max_cycle;Signal;HPM_P1;HPM_P2
2023/05/02 00:02:11;;;;;;;4.70;2.50;;;12.80;99.90;;;;;;5029957;28;20188;-73
2023/05/02 00:04:37;;;;;;;3.88;2.53;;;12.80;99.90;;;;;;5031254;28;20249;-73
2023/05/02 00:07:03;;;;;;;4.87;2.80;;;12.80;99.90;;;;;;5021865;28;20178;-73
2023/05/02 00:09:28;;;;;;;5.73;2.40;;;12.80;99.90;;;;;;5013443;28;20652;-73
2023/05/02 00:11:54;;;;;;;3.83;2.40;;;12.80;99.90;;;;;;5029691;28;20208;-73
2023/05/02 00:14:20;;;;;;;6.50;2.73;;;12.70;99.90;;;;;;5029696;28;20188;-74
2023/05/02 00:16:45;;;;;;;6.63;2.47;;;12.70;99.90;;;;;;5031132;28;20687;-73
2023/05/02 00:19:11;;;;;;;6.77;2.60;;;12.70;99.90;;;;;;5029276;28;20197;-73
2023/05/02 00:21:37;;;;;;;3.97;3.10;;;12.60;99.90;;;;;;5026261;28;20226;-74
2023/05/02 00:24:03;;;;;;;5.45;2.40;;;;;;;;;;5026025;28;20786;-74
2023/05/02 00:26:28;;;;;;;6.80;2.80;;;12.50;99.90;;;;;;5028298;28;20181;-73
2023/05/02 00:28:54;;;;;;;4.67;2.40;;;12.50;99.90;;;;;;5027600;28;20228;-72
2023/05/02 00:31:19;;;;;;;4.33;2.80;;;12.50;99.90;;;;;;5028840;28;20653;-73
2023/05/02 00:33:45;;;;;;;4.77;2.60;;;12.50;99.90;;;;;;5027290;28;20540;-72
2023/05/02 00:36:15;;;;;;;5.40;2.50;;;12.40;99.90;;;;;;5027691;28;20219;-73
2023/05/02 00:38:40;;;;;;;4.50;2.90;;;12.40;99.90;;;;;;5022321;28;20177;-72
2023/05/02 00:41:06;;;;;;;3.40;2.27;;;;;;;;;;5028288;28;20182;-72
2023/05/02 00:43:32;;;;;;;6.70;2.80;;;12.40;99.90;;;;;;5029742;28;20209;-71
2023/05/02 00:45:58;;;;;;;5.72;2.95;;;12.30;99.90;;;;;;5029024;28;20220;-71
2023/05/02 00:48:24;;;;;;;6.57;2.90;;;12.30;99.90;;;;;;5030479;28;20190;-72
2023/05/02 00:50:50;;;;;;;4.73;3.10;;;12.30;99.90;;;;;;5028859;28;20182;-72
2023/05/02 00:53:16;;;;;;;8.63;3.70;;;12.40;99.90;;;;;;5022437;28;20177;-72
2023/05/02 00:55:42;;;;;;;5.77;3.10;;;12.40;99.90;;;;;;5028021;28;20284;-72
2023/05/02 00:58:13;;;;;;;6.63;3.60;;;12.40;99.90;;;;;;5030395;28;20664;-71
2023/05/02 01:00:41;;;;;;;4.40;3.40;;;12.40;99.90;;;;;;5028804;28;20680;-75
2023/05/02 01:03:35;;;;;;;5.57;3.30;;;12.40;99.90;;;;;;5029210;28;20202;-74
2023/05/02 01:06:07;;;;;;;5.77;3.00;;;12.40;99.90;;;;;;4986913;28;20182;-74
2023/05/02 01:08:51;;;;;;;4.23;3.07;;;12.50;99.90;;;;;;5022404;28;20644;-72
2023/05/02 01:11:30;;;;;;;4.47;2.90;;;12.50;99.90;;;;;;5025358;28;20240;-72
2023/05/02 01:14:00;;;;;;;4.87;2.87;;;12.50;99.90;;;;;;5010912;28;20201;-72
2023/05/02 01:16:27;;;;;;;5.57;3.47;;;12.40;99.90;;;;;;5030028;28;20676;-73
2023/05/02 01:18:54;;;;;;;5.23;3.33;;;12.50;99.90;;;;;;5028493;28;20232;-72
2023/05/02 01:21:20;;;;;;;4.37;3.10;;;12.40;99.90;;;;;;5028596;28;20266;-72
2023/05/02 01:24:04;;;;;;;6.20;3.70;;;12.30;99.90;;;;;;5023090;28;20585;-72
2023/05/02 01:26:44;;;;;;;10.33;3.60;;;12.30;99.90;;;;;;5027468;28;20240;-71
2023/05/02 01:29:14;;;;;;;5.30;3.30;;;12.20;99.90;;;;;;5028866;28;20190;-72
2023/05/02 01:31:46;;;;;;;5.13;3.30;;;12.60;99.90;;;;;;5028921;28;20173;-71
2023/05/02 01:34:12;;;;;;;5.20;3.63;;;12.20;99.90;;;;;;5027410;28;20190;-72
2023/05/02 01:36:43;;;;;;;7.03;4.10;;;12.10;99.90;;;;;;5029846;28;20680;-72
2023/05/02 01:39:14;;;;;;;7.13;3.40;;;12.10;99.90;;;;;;5024812;28;20174;-74
2023/05/02 01:41:41;;;;;;;6.77;3.67;;;12.10;99.90;;;;;;5028680;28;20189;-73
2023/05/02 01:44:09;;;;;;;5.53;3.60;;;12.00;99.90;;;;;;5026933;28;20225;-74
2023/05/02 01:46:39;;;;;;;6.87;3.47;;;12.00;99.90;;;;;;5028233;28;20182;-73
2023/05/02 01:49:06;;;;;;;5.77;3.83;;;11.90;99.90;;;;;;5028065;28;20261;-74
2023/05/02 01:51:34;;;;;;;9.33;4.10;;;11.80;99.90;;;;;;5028929;28;20283;-74
2023/05/02 01:54:07;;;;;;;7.40;3.67;;;11.80;99.90;;;;;;5026803;28;20280;-74
2023/05/02 01:56:36;;;;;;;4.77;3.53;;;11.80;99.90;;;;;;5028754;28;20218;-74
2023/05/02 01:59:05;;;;;;;6.33;4.10;;;11.70;99.90;;;;;;5029699;28;20195;-75
2023/05/02 02:01:31;;;;;;;7.80;4.13;;;11.70;99.90;;;;;;5033601;28;20193;-74
2023/05/02 02:03:59;;;;;;;7.10;4.50;;;11.70;99.90;;;;;;5031931;28;20248;-73
2023/05/02 02:06:26;;;;;;;6.20;4.50;;;11.70;99.90;;;;;;5029683;28;20170;-73
2023/05/02 02:08:52;;;;;;;6.07;4.07;;;11.70;99.90;;;;;;5023782;28;20665;-73
2023/05/02 02:11:32;;;;;;;7.83;3.77;;;11.70;99.90;;;;;;5014428;28;20216;-73
2023/05/02 02:14:11;;;;;;;6.33;3.93;;;11.60;99.90;;;;;;5030499;28;20190;-73
2023/05/02 02:16:40;;;;;;;7.80;4.20;;;11.60;99.90;;;;;;5033023;28;20213;-73
2023/05/02 02:19:09;;;;;;;10.57;3.90;;;11.60;99.90;;;;;;5030133;28;20183;-72
2023/05/02 02:21:37;;;;;;;10.27;4.20;;;11.60;99.90;;;;;;5031958;28;20719;-72
2023/05/02 02:24:05;;;;;;;7.30;4.67;;;11.60;99.90;;;;;;5026607;28;20197;-72
2023/05/02 02:26:31;;;;;;;8.33;4.50;;;11.70;99.90;;;;;;5032984;28;20252;-72
2023/05/02 02:28:56;;;;;;;5.90;4.30;;;11.70;99.90;;;;;;5026693;28;20178;-75
2023/05/02 02:31:24;;;;;;;8.50;4.70;;;11.70;99.90;;;;;;5032025;28;20193;-75
2023/05/02 02:33:50;;;;;;;7.10;4.10;;;11.70;99.90;;;;;;5030329;28;20192;-75
2023/05/02 02:36:54;;;;;;;6.50;3.70;;;11.70;99.90;;;;;;5031141;28;20239;-74
2023/05/02 02:39:50;;;;;;;5.60;3.37;;;11.80;99.90;;;;;;5026500;28;20231;-73
2023/05/02 02:42:34;;;;;;;9.17;4.07;;;11.80;99.90;;;;;;5030352;28;20687;-76
2023/05/02 02:45:18;;;;;;;6.43;4.07;;;11.70;99.90;;;;;;5031408;28;20644;-71
2023/05/02 02:48:01;;;;;;;8.00;3.93;;;11.70;99.90;;;;;;5030680;28;20304;-72
2023/05/02 02:50:45;;;;;;;6.83;5.00;;;11.60;99.90;;;;;;5025293;28;20225;-72
2023/05/02 02:53:26;;;;;;;7.30;4.03;;;11.60;99.90;;;;;;5028892;28;20174;-72
2023/05/02 02:56:01;;;;;;;6.80;4.00;;;11.60;99.90;;;;;;5027619;28;20272;-70
2023/05/02 02:58:33;;;;;;;4.90;3.60;;;11.50;99.90;;;;;;5032301;28;20654;-70
2023/05/02 03:01:03;;;;;;;8.07;4.50;;;11.50;99.90;;;;;;5030274;28;20174;-70
2023/05/02 03:03:31;;;;;;;9.23;5.13;;;11.40;99.90;;;;;;5031369;28;20213;-70
2023/05/02 03:05:57;;;;;;;7.73;4.73;;;;;;;;;;5029938;28;20182;-70
2023/05/02 03:08:23;;;;;;;8.00;4.03;;;11.40;99.90;;;;;;5031469;28;20205;-70
2023/05/02 03:10:49;;;;;;;9.83;4.40;;;11.30;99.90;;;;;;5027918;28;21403;-70
2023/05/02 03:13:14;;;;;;;11.80;4.60;;;11.30;99.90;;;;;;5031256;28;20217;-71
2023/05/02 03:15:52;;;;;;;6.70;4.70;;;11.20;99.90;;;;;;5030523;28;20205;-70
2023/05/02 03:18:18;;;;;;;6.97;4.67;;;11.10;99.90;;;;;;5028437;28;20200;-69
2023/05/02 03:20:44;;;;;;;6.17;4.70;;;11.10;99.90;;;;;;5028748;28;20261;-70
2023/05/02 03:23:09;;;;;;;7.47;4.63;;;11.10;99.90;;;;;;5030738;28;20813;-70
2023/05/02 03:25:35;;;;;;;7.60;4.83;;;11.00;99.90;;;;;;5030535;28;20173;-71
2023/05/02 03:28:01;;;;;;;9.57;4.83;;;11.00;99.90;;;;;;5030621;28;20223;-72
2023/05/02 03:30:27;;;;;;;6.50;4.87;;;11.00;99.90;;;;;;5030815;28;20255;-72
2023/05/02 03:32:53;;;;;;;7.50;4.73;;;11.00;99.90;;;;;;5029397;28;20257;-71
2023/05/02 03:35:18;;;;;;;8.97;4.77;;;10.90;99.90;;;;;;5029780;28;20276;-72
2023/05/02 03:37:44;;;;;;;6.73;4.67;;;10.90;99.90;;;;;;5028466;28;20186;-73
2023/05/02 03:40:10;;;;;;;8.17;5.10;;;10.80;99.90;;;;;;5030821;28;20185;-70
2023/05/02 03:42:38;;;;;;;8.03;4.73;;;11.30;99.90;;;;;;5028435;28;20174;-71
2023/05/02 03:45:09;;;;;;;9.27;4.93;;;10.80;99.90;;;;;;5030833;28;20182;-71
2023/05/02 03:47:34;;;;;;;12.37;4.87;;;10.80;99.90;;;;;;5011943;28;20191;-71
2023/05/02 03:50:02;;;;;;;11.07;5.10;;;10.80;99.90;;;;;;5030818;28;20257;-70
2023/05/02 03:52:27;;;;;;;6.73;4.80;;;10.90;99.90;;;;;;5029309;28;20185;-71
2023/05/02 03:54:53;;;;;;;7.03;4.80;;;10.90;99.90;;;;;;5030572;28;20173;-70
2023/05/02 03:57:18;;;;;;;7.70;4.70;;;11.00;99.90;;;;;;5029929;28;20217;-70
2023/05/02 03:59:47;;;;;;;7.10;5.07;;;11.00;99.90;;;;;;5030185;28;20260;-72
2023/05/02 04:02:14;;;;;;;7.70;4.53;;;10.90;99.90;;;;;;5029459;28;20220;-71
2023/05/02 04:04:42;;;;;;;10.10;5.10;;;10.90;99.90;;;;;;5029293;28;20178;-71
2023/05/02 04:07:08;;;;;;;8.33;4.83;;;10.90;99.90;;;;;;5030233;28;20174;-71
2023/05/02 04:09:34;;;;;;;6.23;4.83;;;10.90;99.90;;;;;;5029349;28;20178;-72
2023/05/02 04:12:00;;;;;;;7.50;4.63;;;10.90;99.90;;;;;;5029426;28;20193;-72
2023/05/02 04:14:26;;;;;;;8.63;5.10;;;10.90;99.90;;;;;;5029246;28;20249;-72
2023/05/02 04:16:52;;;;;;;8.90;5.87;;;10.90;99.90;;;;;;5030688;28;20301;-72
2023/05/02 04:19:18;;;;;;;10.70;5.53;;;11.00;99.90;;;;;;5029598;28;20265;-72
2023/05/02 04:21:44;;;;;;;11.07;6.00;;;11.00;99.90;;;;;;5030530;28;20221;-71
2023/05/02 04:24:10;;;;;;;10.47;6.63;;;11.00;99.90;;;;;;5029461;28;20213;-73
2023/05/02 04:26:36;;;;;;;9.90;5.83;;;11.10;99.90;;;;;;5026477;28;20213;-73
2023/05/02 04:29:03;;;;;;;10.27;6.90;;;11.10;99.90;;;;;;5012563;28;20169;-73
2023/05/02 04:31:30;;;;;;;12.20;7.27;;;11.20;99.90;;;;;;5029176;28;20189;-73
2023/05/02 04:33:55;;;;;;;12.43;7.47;;;11.20;99.90;;;;;;5030392;28;20212;-73
2023/05/02 04:36:21;;;;;;;14.40;8.50;;;11.30;99.90;;;;;;5029656;28;20667;-73
2023/05/02 04:38:47;;;;;;;11.00;8.20;;;11.30;99.90;;;;;;5029980;28;20232;-72
2023/05/02 04:41:14;;;;;;;12.07;8.10;;;12.10;99.90;;;;;;5029269;28;20193;-73
2023/05/02 04:43:40;;;;;;;11.83;7.90;;;11.40;99.90;;;;;;5030698;28;20178;-72
2023/05/02 04:46:05;;;;;;;13.60;8.63;;;11.50;99.90;;;;;;5029260;28;20239;-72
2023/05/02 04:48:32;;;;;;;11.53;8.53;;;11.40;99.90;;;;;;5029728;28;20185;-73
2023/05/02 04:50:58;;;;;;;11.57;8.20;;;11.50;99.90;;;;;;5028537;28;20519;-71
2023/05/02 04:53:23;;;;;;;14.27;8.87;;;11.40;99.90;;;;;;5030331;28;20231;-71
2023/05/02 04:55:49;;;;;;;12.30;8.20;;;11.50;99.90;;;;;;5028620;28;20210;-71
2023/05/02 04:58:15;;;;;;;12.57;8.23;;;11.60;99.90;;;;;;5029519;28;20294;-70
2023/05/02 05:00:40;;;;;;;14.17;8.47;;;11.50;99.90;;;;;;5030216;28;20636;-72
2023/05/02 05:03:06;;;;;;;11.93;8.53;;;11.60;99.90;;;;;;5028786;28;20212;-71
2023/05/02 05:05:32;;;;;;;12.57;8.40;;;11.50;99.90;;;;;;5030149;28;20652;-71
2023/05/02 05:07:58;;;;;;;12.97;9.03;;;;;;;;;;5027456;28;20637;-71
2023/05/02 05:10:24;;;;;;;16.63;9.30;;;11.40;99.90;;;;;;5029720;28;20224;-71
2023/05/02 05:12:49;;;;;;;13.83;8.90;;;11.40;99.90;;;;;;5027762;28;20666;-71
2023/05/02 05:15:15;;;;;;;13.47;9.00;;;11.50;99.90;;;;;;5028937;28;20711;-72
2023/05/02 05:17:41;;;;;;;11.87;8.30;;;11.50;99.90;;;;;;5027892;28;20255;-71
2023/05/02 05:20:09;;;;;;;13.03;9.30;;;11.60;99.90;;;;;;5029421;28;20532;-71
2023/05/02 05:22:40;;;;;;;13.00;9.50;;;11.50;99.90;;;;;;5011586;28;20263;-71
2023/05/02 05:25:06;;;;;;;14.33;9.67;;;11.50;99.90;;;;;;5026318;28;20269;-73
2023/05/02 05:27:33;;;;;;;15.73;9.40;;;11.40;99.90;;;;;;5028844;28;20177;-72
2023/05/02 05:29:59;;;;;;;16.57;9.87;;;11.40;99.90;;;;;;5029975;28;20274;-73
2023/05/02 05:32:24;;;;;;;16.67;9.87;;;11.40;99.90;;;;;;5029158;28;20257;-73
2023/05/02 05:34:53;;;;;;;14.53;9.83;;;11.30;99.90;;;;;;5027677;28;20181;-74
2023/05/02 05:37:20;;;;;;;13.73;10.00;;;11.40;99.90;;;;;;5029109;28;20224;-74
2023/05/02 05:39:46;;;;;;;14.17;10.40;;;11.40;99.90;;;;;;5028275;28;20719;-74
2023/05/02 05:42:12;;;;;;;15.60;10.00;;;11.30;99.90;;;;;;5029209;28;20185;-73
2023/05/02 05:44:38;;;;;;;15.43;9.97;;;11.20;99.90;;;;;;5028593;28;20307;-73
2023/05/02 05:47:04;;;;;;;14.40;10.20;;;11.50;99.90;;;;;;5029821;28;20277;-72
2023/05/02 05:49:30;;;;;;;16.53;10.27;;;11.50;99.90;;;;;;5028325;28;20724;-73
2023/05/02 05:51:56;;;;;;;13.83;9.70;;;11.60;99.90;;;;;;5028853;28;20253;-73
2023/05/02 05:54:22;;;;;;;15.10;9.93;;;11.70;99.90;;;;;;5028068;28;20177;-73
2023/05/02 05:56:47;;;;;;;15.37;10.77;;;11.60;99.90;;;;;;5029506;28;20267;-72
2023/05/02 05:59:13;;;;;;;16.63;10.87;;;11.40;99.90;;;;;;5027946;28;20656;-73
2023/05/02 06:01:39;;;;;;;14.87;10.17;;;;;;;;;;5028745;28;20209;-73
2023/05/02 06:04:06;;;;;;;13.97;9.97;;;11.50;99.90;;;;;;5029754;28;20185;-73
2023/05/02 06:06:32;;;;;;;13.47;9.80;;;11.50;99.90;;;;;;5028899;28;20190;-72
2023/05/02 06:08:58;;;;;;;15.17;10.17;;;11.60;99.90;;;;;;5028849;28;20252;-72
2023/05/02 06:11:23;;;;;;;15.60;10.30;;;11.70;99.90;;;;;;5025282;28;20257;-72
2023/05/02 06:13:51;;;;;;;15.03;10.20;;;11.40;99.90;;;;;;5027368;28;20257;-72
2023/05/02 06:16:17;;;;;;;20.03;10.33;;;11.40;99.90;;;;;;5025946;28;20225;-72
2023/05/02 06:18:43;;;;;;;15.20;9.57;;;11.30;99.90;;;;;;5029396;28;20217;-72
2023/05/02 06:21:09;;;;;;;15.53;10.63;;;;;;;;;;5026874;28;20264;-71
2023/05/02 06:23:35;;;;;;;13.97;10.00;;;11.20;99.90;;;;;;5028515;28;20537;-72
2023/05/02 06:26:02;;;;;;;12.33;9.47;;;11.20;99.90;;;;;;5027142;28;20170;-73
2023/05/02 06:28:28;;;;;;;14.73;9.90;;;11.10;99.90;;;;;;5026776;28;20181;-76
2023/05/02 06:31:01;;;;;;;13.90;9.77;;;11.10;99.90;;;;;;5026756;28;20182;-73
2023/05/02 06:33:30;;;;;;;14.60;9.60;;;11.20;99.90;;;;;;5023426;28;20178;-73
2023/05/02 06:35:56;;;;;;;13.30;10.20;;;11.10;99.90;;;;;;5019207;28;20244;-75
2023/05/02 06:38:22;;;;;;;13.87;9.60;;;11.10;99.90;;;;;;5025507;28;20187;-73
2023/05/02 06:40:48;;;;;;;13.87;9.63;;;10.90;99.90;;;;;;5026081;28;20235;-74
2023/05/02 06:43:14;;;;;;;14.83;10.10;;;10.90;99.90;;;;;;5023391;28;20193;-86
2023/05/02 06:45:40;;;;;;;14.03;9.93;;;;;;;;;;5021656;28;20235;-75
2023/05/02 06:48:06;;;;;;;15.77;11.17;;;10.70;99.90;;;;;;5013069;28;20194;-73
2023/05/02 06:50:32;;;;;;;15.40;10.60;;;10.80;99.90;;;;;;5030410;28;20533;-73
2023/05/02 06:52:58;;;;;;;19.13;10.47;;;10.90;99.90;;;;;;5012969;28;20181;-72
2023/05/02 06:55:24;;;;;;;14.97;10.97;;;10.90;99.90;;;;;;5031169;28;20190;-73
2023/05/02 06:57:50;;;;;;;15.67;10.73;;;11.00;99.90;;;;;;5030099;28;20186;-72
2023/05/02 07:00:17;;;;;;;18.40;11.20;;;11.20;99.90;;;;;;5032373;28;20308;-73
2023/05/02 07:02:48;;;;;;;13.50;9.97;;;11.30;99.90;;;;;;5031058;28;20186;-73
2023/05/02 07:05:14;;;;;;;14.40;10.57;;;11.30;99.90;;;;;;5031701;28;20189;-74
2023/05/02 07:07:43;;;;;;;14.80;10.67;;;11.40;99.90;;;;;;5013751;28;20216;-73
2023/05/02 07:10:10;;;;;;;15.17;10.97;;;11.30;99.90;;;;;;5031583;28;20209;-74
2023/05/02 07:12:37;;;;;;;18.03;11.27;;;11.40;99.90;;;;;;5029052;28;20178;-73
2023/05/02 07:15:03;;;;;;;16.50;11.40;;;11.50;99.90;;;;;;5029230;28;20185;-74
2023/05/02 07:17:29;;;;;;;13.70;10.23;;;11.50;99.90;;;;;;5031350;28;20344;-73
2023/05/02 07:19:55;;;;;;;15.50;11.07;;;11.50;99.90;;;;;;5029150;28;20645;-74
2023/05/02 07:22:20;;;;;;;13.13;10.20;;;11.50;99.90;;;;;;5030676;28;20754;-74
2023/05/02 07:24:46;;;;;;;17.87;10.17;;;11.50;99.90;;;;;;5030391;28;20680;-74
2023/05/02 07:27:12;;;;;;;17.73;9.73;;;11.60;99.90;;;;;;5031552;28;20185;-74
2023/05/02 07:29:38;;;;;;;16.63;9.93;;;11.70;99.90;;;;;;5030334;28;20189;-75
2023/05/02 07:32:05;;;;;;;12.47;9.30;;;11.80;99.90;;;;;;5029698;28;20236;-75
2023/05/02 07:34:31;;;;;;;14.47;9.00;;;11.80;99.90;;;;;;5030753;28;20178;-75
2023/05/02 07:36:57;;;;;;;12.17;9.00;;;12.60;99.90;;;;;;5030607;28;20553;-76
2023/05/02 07:39:24;;;;;;;17.37;8.53;;;11.80;99.90;;;;;;5031036;28;20190;-74
2023/05/02 07:41:53;;;;;;;12.43;9.00;;;11.80;99.90;;;;;;5031069;28;20204;-74
2023/05/02 07:44:20;;;;;;;16.00;8.80;;;11.90;99.90;;;;;;5030091;28;20188;-75
2023/05/02 07:46:46;;;;;;;14.17;9.33;;;12.10;99.90;;;;;;5029148;28;20659;-75
2023/05/02 07:49:12;;;;;;;13.07;8.80;;;12.30;99.90;;;;;;5030523;28;20243;-75
2023/05/02 07:51:38;;;;;;;14.70;9.13;;;12.30;99.90;;;;;;5029791;28;20189;-76
2023/05/02 07:54:16;;;;;;;12.30;8.13;;;12.20;99.90;;;;;;5030470;28;20186;-77
2023/05/02 07:56:42;;;;;;;14.95;8.45;;;12.40;99.90;;;;;;5028490;28;20664;-76
2023/05/02 07:59:08;;;;;;;11.43;7.77;;;12.40;99.90;;;;;;5030851;28;20227;-76
2023/05/02 08:01:34;;;;;;;10.43;6.77;;;12.50;99.90;;;;;;5029321;28;20181;-76
2023/05/02 08:04:00;;;;;;;12.43;6.93;;;12.70;99.90;;;;;;5012643;28;20186;-75
2023/05/02 08:06:25;;;;;;;11.50;7.20;;;12.70;99.90;;;;;;5030614;28;20205;-77
2023/05/02 08:08:51;;;;;;;12.70;6.73;;;12.60;99.90;;;;;;5034088;28;20184;-82
2023/05/02 08:11:16;;;;;;;9.95;7.03;;;12.70;99.90;;;;;;5029762;28;20259;-75
2023/05/02 08:13:42;;;;;;;11.68;7.30;;;12.70;99.90;;;;;;5030166;28;20182;-76
2023/05/02 08:16:08;;;;;;;12.33;7.47;;;12.70;99.90;;;;;;5028515;28;20210;-77
2023/05/02 08:18:33;;;;;;;15.52;7.97;;;12.80;99.90;;;;;;5029785;28;20592;-76
2023/05/02 08:20:59;;;;;;;13.13;7.65;;;12.90;99.90;;;;;;5030804;28;20220;-77
2023/05/02 08:23:24;;;;;;;12.82;7.28;;;13.20;99.90;;;;;;5028513;28;20185;-75
2023/05/02 08:25:50;;;;;;;13.77;7.70;;;13.50;99.90;;;;;;5029284;28;20209;-77
2023/05/02 08:28:16;;;;;;;11.80;8.05;;;13.60;99.90;;;;;;5029337;28;20645;-85
2023/05/02 08:30:44;;;;;;;12.55;7.63;;;13.40;99.90;;;;;;5031745;28;20232;-86
2023/05/02 08:33:09;;;;;;;14.00;8.18;;;13.40;99.90;;;;;;5029972;28;20187;-83
2023/05/02 08:35:35;;;;;;;12.57;9.05;;;13.30;99.90;;;;;;5029465;28;20575;-82
2023/05/02 08:38:01;;;;;;;16.73;8.77;;;12.70;99.90;;;;;;5027897;28;20204;-84
2023/05/02 08:40:26;;;;;;;15.02;9.18;;;12.80;99.90;;;;;;5030106;28;20188;-81
2023/05/02 08:42:54;;;;;;;15.68;9.50;;;12.70;99.90;;;;;;5029219;28;20185;-82
2023/05/02 08:45:22;;;;;;;16.38;8.95;;;12.90;99.90;;;;;;5029355;28;20189;-83
2023/05/02 08:47:49;;;;;;;16.40;9.87;;;12.70;99.90;;;;;;5029759;28;20247;-81
2023/05/02 08:50:16;;;;;;;16.00;9.80;;;12.70;99.90;;;;;;5027962;28;20240;-82
2023/05/02 08:52:44;;;;;;;17.53;10.77;;;12.70;99.90;;;;;;5029507;28;20548;-83
2023/05/02 08:55:11;;;;;;;17.43;10.73;;;12.30;99.90;;;;;;5025105;28;20174;-84
2023/05/02 08:57:38;;;;;;;16.00;10.83;;;12.50;99.90;;;;;;5029796;28;20197;-82
2023/05/02 09:00:05;;;;;;;16.47;10.43;;;12.50;99.90;;;;;;5028841;28;20166;-74
2023/05/02 09:03:25;;;;;;;20.77;12.10;;;12.80;99.90;;;;;;5030215;28;20180;-75
2023/05/02 09:06:04;;;;;;;17.23;11.87;;;12.70;99.90;;;;;;4981838;28;20547;-78
2023/05/02 09:08:29;;;;;;;19.70;12.95;;;13.10;99.90;;;;;;5026447;28;20648;-80
2023/05/02 09:10:55;;;;;;;20.15;13.65;;;13.20;99.90;;;;;;5029808;28;20206;-75
2023/05/02 09:13:31;;;;;;;19.13;11.88;;;13.30;99.90;;;;;;5028576;28;20186;-72
2023/05/02 09:16:08;;;;;;;20.70;12.38;;;13.10;99.90;;;;;;5020996;28;20212;-72
2023/05/02 09:18:36;;;;;;;20.55;12.13;;;13.20;99.90;;;;;;5027666;28;20280;-71
2023/05/02 09:21:10;;;;;;;18.75;12.30;;;13.50;99.90;;;;;;5029034;28;20213;-71
2023/05/02 09:24:00;;;;;;;18.75;12.30;;;13.50;99.90;;;;;;5029155;28;20178;-71
2023/05/02 09:26:31;;;;;;;20.75;12.65;;;13.70;99.90;;;;;;5027246;28;20178;-71
2023/05/02 09:28:58;;;;;;;17.13;11.95;;;13.50;99.90;;;;;;5029298;28;20177;-72
2023/05/02 09:31:32;;;;;;;19.80;11.90;;;13.80;99.90;;;;;;5026831;28;20509;-71
2023/05/02 09:34:10;;;;;;;17.58;12.25;;;14.00;99.90;;;;;;5025424;28;20540;-70
2023/05/02 09:36:49;;;;;;;18.40;12.68;;;14.10;99.90;;;;;;5025881;28;20225;-71
2023/05/02 09:39:17;;;;;;;21.27;12.60;;;13.80;99.90;;;;;;5027950;28;20657;-70
2023/05/02 09:41:44;;;;;;;17.95;12.70;;;13.70;99.90;;;;;;5027199;28;20191;-71
2023/05/02 09:44:11;;;;;;;20.38;12.35;;;13.60;99.90;;;;;;5029362;28;20278;-70
2023/05/02 09:46:41;;;;;;;20.52;12.82;;;13.40;99.90;;;;;;5028183;28;20721;-71
2023/05/02 09:49:10;;;;;;;17.67;12.48;;;14.00;99.90;;;;;;5029411;28;20228;-71
2023/05/02 09:51:36;;;;;;;19.30;12.00;;;13.80;99.90;;;;;;5028325;28;20194;-72
2023/05/02 09:54:02;;;;;;;18.70;13.18;;;14.10;99.90;;;;;;5029780;28;20216;-71
2023/05/02 09:56:27;;;;;;;20.65;13.23;;;14.00;99.90;;;;;;5028086;28;20293;-71
2023/05/02 09:59:13;;;;;;;19.92;12.32;;;13.20;99.90;;;;;;5029070;28;20200;-72
2023/05/02 10:01:41;;;;;;;19.50;13.35;;;13.40;99.90;;;;;;5028225;28;20233;-72
2023/05/02 10:04:17;;;;;;;20.88;12.77;;;13.50;99.90;;;;;;5028706;28;20173;-72
2023/05/02 10:06:43;;;;;;;17.05;12.25;;;13.60;99.90;;;;;;5025852;28;20182;-72
2023/05/02 10:09:11;;;;;;;16.75;11.85;;;13.60;99.90;;;;;;5026753;28;20212;-72
2023/05/02 10:11:42;;;;;;;16.42;11.23;;;14.00;99.90;;;;;;5026342;28;20224;-72
2023/05/02 10:14:09;;;;;;;13.50;10.02;;;13.90;99.90;;;;;;5027420;28;20256;-72
2023/05/02 10:16:40;;;;;;;15.40;10.00;;;14.10;99.90;;;;;;5026043;28;20704;-72
2023/05/02 10:19:11;;;;;;;14.60;9.00;;;14.00;99.90;;;;;;5027487;28;20185;-72
2023/05/02 10:21:42;;;;;;;12.60;8.50;;;14.30;99.90;;;;;;5031555;28;20313;-72
2023/05/02 10:24:08;;;;;;;12.98;8.18;;;13.90;99.90;;;;;;5033237;28;20170;-72
2023/05/02 10:26:35;;;;;;;12.20;8.20;;;14.30;99.90;;;;;;5031580;28;20178;-72
2023/05/02 10:29:01;;;;;;;12.30;8.20;;;14.10;99.90;;;;;;5014788;28;20277;-72
2023/05/02 10:31:32;;;;;;;9.95;7.50;;;13.90;99.90;;;;;;5014858;28;20177;-72
2023/05/02 10:34:00;;;;;;;13.02;8.02;;;14.30;99.90;;;;;;5028538;28;20177;-72
2023/05/02 10:36:27;;;;;;;12.02;7.88;;;14.70;99.90;;;;;;5032495;28;20308;-72
2023/05/02 10:38:54;;;;;;;14.02;7.53;;;14.90;99.90;;;;;;5031923;28;20644;-72
2023/05/02 10:41:27;;;;;;;10.60;7.75;;;14.30;99.90;;;;;;5032121;28;20173;-72
2023/05/02 10:43:53;;;;;;;10.68;7.30;;;14.40;99.90;;;;;;5031949;28;20204;-72
2023/05/02 10:46:33;;;;;;;9.80;7.20;;;14.60;99.90;;;;;;5031884;28;20645;-70
2023/05/02 10:49:04;;;;;;;11.38;6.80;;;14.70;99.90;;;;;;5032365;28;20174;-70
2023/05/02 10:51:32;;;;;;;13.82;7.50;;;15.10;99.90;;;;;;5031123;28;20556;-71
2023/05/02 10:54:16;;;;;;;13.90;7.43;;;14.80;99.90;;;;;;5031628;28;20189;-70
2023/05/02 10:57:04;;;;;;;12.88;7.25;;;14.90;99.90;;;;;;5030953;28;20209;-70
2023/05/02 10:59:37;;;;;;;11.68;6.93;;;15.50;99.90;;;;;;5023902;28;20257;-70
2023/05/02 11:02:04;;;;;;;14.02;8.35;;;15.70;99.90;;;;;;5031172;28;20215;-71
2023/05/02 11:04:59;;;;;;;11.13;7.25;;;14.90;99.90;;;;;;5023838;28;20182;-71
2023/05/02 11:07:24;;;;;;;11.05;7.43;;;15.20;99.90;;;;;;5028293;28;20212;-70
2023/05/02 11:09:50;;;;;;;19.58;7.30;;;15.30;99.90;;;;;;5032084;28;20715;-71
2023/05/02 11:12:47;;;;;;;11.10;7.22;;;15.70;99.90;;;;;;5031336;28;20181;-71
2023/05/02 11:15:14;;;;;;;9.10;6.93;;;15.90;99.90;;;;;;5030814;28;20186;-71
2023/05/02 11:18:00;;;;;;;11.52;6.72;;;16.80;99.90;;;;;;5031096;28;20252;-71
2023/05/02 11:20:26;;;;;;;11.25;6.63;;;16.80;1.00;;;;;;5030637;28;20204;-71
2023/05/02 11:22:53;;;;;;;10.40;6.85;;;16.10;1.00;;;;;;5023398;28;20185;-71
2023/05/02 11:25:28;;;;;;;12.82;6.57;;;16.20;11.70;;;;;;5030426;28;20177;-71
2023/05/02 11:27:54;;;;;;;10.18;7.10;;;16.30;1.00;;;;;;5023391;28;20177;-71
2023/05/02 11:30:41;;;;;;;11.38;6.72;;;16.40;1.00;;;;;;5030459;28;20226;-71
2023/05/02 11:33:06;;;;;;;11.05;6.38;;;16.80;1.00;;;;;;5024406;28;20190;-72
2023/05/02 11:35:34;;;;;;;9.90;6.88;;;17.10;1.00;;;;;;5029274;28;20186;-71
2023/05/02 11:38:13;;;;;;;10.20;6.80;;;17.20;99.90;;;;;;5031266;28;20239;-72
2023/05/02 11:40:39;;;;;;;11.77;6.72;;;17.40;1.00;;;;;;5030357;28;20180;-70
2023/05/02 11:43:12;;;;;;;9.15;6.70;;;17.60;1.00;;;;;;5031059;28;20188;-70
2023/05/02 11:45:39;;;;;;;7.85;5.90;;;17.60;1.00;;;;;;5029788;28;20652;-71
2023/05/02 11:48:06;;;;;;;11.07;6.20;;;18.10;1.00;;;;;;5031602;28;20165;-71
2023/05/02 11:50:46;;;;;;;11.10;6.13;;;18.90;99.90;;;;;;5030181;28;20746;-72
2023/05/02 11:53:22;;;;;;;7.97;5.63;;;19.60;99.90;;;;;;5007584;28;20217;-72
2023/05/02 11:55:53;;;;;;;7.60;5.30;;;19.30;1.00;;;;;;5031125;28;20209;-71
2023/05/02 11:58:24;;;;;;;9.88;5.88;;;19.10;1.00;;;;;;5030436;28;20182;-71
2023/05/02 12:00:51;;;;;;;9.48;5.85;;;19.00;1.00;;;;;;5030816;28;20707;-71
2023/05/02 12:03:26;;;;;;;7.80;5.57;;;20.10;99.90;;;;;;5031027;28;20177;-72
2023/05/02 12:05:52;;;;;;;7.25;5.68;;;20.30;1.00;;;;;;5030509;28;20177;-72
2023/05/02 12:08:26;;;;;;;7.72;5.28;;;19.90;99.90;;;;;;5031274;28;20186;-72
2023/05/02 12:10:53;;;;;;;8.95;5.90;;;20.10;99.90;;;;;;5030928;28;20188;-72
2023/05/02 12:13:22;;;;;;;10.30;5.43;;;20.20;1.00;;;;;;5030580;28;20269;-72
2023/05/02 12:15:49;;;;;;;6.85;4.97;;;19.60;1.00;;;;;;5029805;28;20216;-72
2023/05/02 12:18:15;;;;;;;10.20;5.18;;;19.90;1.00;;;;;;5031194;28;20715;-71
2023/05/02 12:20:41;;;;;;;8.63;5.20;;;19.30;1.00;;;;;;5029324;28;20267;-71
2023/05/02 12:23:08;;;;;;;8.63;5.35;;;19.20;99.90;;;;;;5012436;28;20188;-72
2023/05/02 12:25:39;;;;;;;7.35;5.03;;;19.50;1.00;;;;;;5029425;28;20180;-73
2023/05/02 12:28:05;;;;;;;10.32;6.22;;;20.30;1.00;;;;;;5004637;28;20208;-71
2023/05/02 12:30:31;;;;;;;10.77;5.70;;;19.50;1.00;;;;;;5029139;28;20174;-72
2023/05/02 12:33:00;;;;;;;10.93;6.03;;;19.50;1.00;;;;;;5030088;28;20281;-72
2023/05/02 12:35:27;;;;;;;8.18;5.82;;;20.10;1.00;;;;;;5029059;28;20664;-72
2023/05/02 12:37:55;;;;;;;6.72;4.85;;;20.60;1.00;;;;;;5030173;28;20193;-72
2023/05/02 12:40:21;;;;;;;8.60;5.05;;;20.50;1.00;;;;;;5011922;28;20173;-71
2023/05/02 12:43:06;;;;;;;9.63;5.30;;;20.20;99.90;;;;;;5012654;28;20192;-72
2023/05/02 12:45:33;;;;;;;9.68;5.28;;;19.30;99.90;;;;;;5029102;28;20592;-72
2023/05/02 12:48:16;;;;;;;7.75;4.88;;;19.10;99.90;;;;;;5029592;28;20652;-71
2023/05/02 12:50:42;;;;;;;7.50;5.05;;;20.90;99.90;;;;;;5028819;28;20686;-72